sensor_id;sensor_type;location;lat;lon;timestamp;pressure;altitude;pressure_sealevel;temperature;humidity
15568;BME280;7885;42.596;23.044;2023-04-28T00:00:53;93164.56;;;6.12;69.13
15568;BME280;7885;42.596;23.044;2023-04-28T00:03:20;93160.06;;;6.20;68.78
15568;BME280;7885;42.596;23.044;2023-04-28T00:05:46;93156.25;;;6.24;67.36
15568;BME280;7885;42.596;23.044;2023-04-28T00:08:13;93154.41;;;6.28;67.45
15568;BME280;7885;42.596;23.044;2023-04-28T00:10:40;93159.00;;;6.28;67.26
15568;BME280;7885;42.596;23.044;2023-04-28T00:13:07;93143.47;;;6.21;67.58
15568;BME280;7885;42.596;23.044;2023-04-28T00:15:34;93150.09;;;6.24;67.37
15568;BME280;7885;42.596;23.044;2023-04-28T00:18:02;93151.63;;;6.25;66.86
15568;BME280;7885;42.596;23.044;2023-04-28T00:20:29;93151.69;;;6.28;67.21
15568;BME280;7885;42.596;23.044;2023-04-28T00:22:56;93131.41;;;6.15;66.93
15568;BME280;7885;42.596;23.044;2023-04-28T00:25:22;93143.47;;;6.21;66.33
15568;BME280;7885;42.596;23.044;2023-04-28T00:27:49;93153.19;;;6.26;66.96
15568;BME280;7885;42.596;23.044;2023-04-28T00:30:16;93148.53;;;6.23;66.51
15568;BME280;7885;42.596;23.044;2023-04-28T00:32:43;93148.94;;;6.25;66.24
15568;BME280;7885;42.596;23.044;2023-04-28T00:35:11;93163.34;;;6.32;65.23
15568;BME280;7885;42.596;23.044;2023-04-28T00:37:38;93158.72;;;6.33;66.59
15568;BME280;7885;42.596;23.044;2023-04-28T00:40:06;93165.25;;;6.32;66.43
15568;BME280;7885;42.596;23.044;2023-04-28T00:42:33;93167.69;;;6.37;66.41
15568;BME280;7885;42.596;23.044;2023-04-28T00:45:00;93166.50;;;6.34;65.80
15568;BME280;7885;42.596;23.044;2023-04-28T00:47:30;93161.09;;;6.34;64.05
15568;BME280;7885;42.596;23.044;2023-04-28T00:49:57;93161.72;;;6.28;64.89
15568;BME280;7885;42.596;23.044;2023-04-28T00:52:26;93152.41;;;6.25;65.04
15568;BME280;7885;42.596;23.044;2023-04-28T00:54:53;93158.13;;;6.20;64.54
15568;BME280;7885;42.596;23.044;2023-04-28T00:57:21;93165.09;;;6.21;64.47
15568;BME280;7885;42.596;23.044;2023-04-28T00:59:48;93166.94;;;6.17;64.46
15568;BME280;7885;42.596;23.044;2023-04-28T01:02:14;93169.44;;;6.03;65.20
15568;BME280;7885;42.596;23.044;2023-04-28T01:04:43;93151.41;;;5.69;65.82
15568;BME280;7885;42.596;23.044;2023-04-28T01:07:10;93157.44;;;5.62;66.67
15568;BME280;7885;42.596;23.044;2023-04-28T01:09:38;93174.00;;;5.60;68.68
15568;BME280;7885;42.596;23.044;2023-04-28T01:12:05;93175.06;;;5.56;68.99
15568;BME280;7885;42.596;23.044;2023-04-28T01:14:32;93174.59;;;5.50;68.73
15568;BME280;7885;42.596;23.044;2023-04-28T01:16:59;93169.47;;;5.45;68.11
15568;BME280;7885;42.596;23.044;2023-04-28T01:19:26;93165.78;;;5.53;67.08
15568;BME280;7885;42.596;23.044;2023-04-28T01:21:54;93181.03;;;5.46;67.46
15568;BME280;7885;42.596;23.044;2023-04-28T01:24:22;93182.81;;;5.38;67.61
15568;BME280;7885;42.596;23.044;2023-04-28T01:26:49;93173.75;;;5.27;68.05
15568;BME280;7885;42.596;23.044;2023-04-28T01:29:15;93174.88;;;5.26;68.02
15568;BME280;7885;42.596;23.044;2023-04-28T01:31:42;93167.63;;;5.30;67.38
15568;BME280;7885;42.596;23.044;2023-04-28T01:34:09;93167.19;;;5.28;67.79
15568;BME280;7885;42.596;23.044;2023-04-28T01:36:36;93169.25;;;5.35;67.14
15568;BME280;7885;42.596;23.044;2023-04-28T01:39:02;93163.63;;;5.24;67.79
15568;BME280;7885;42.596;23.044;2023-04-28T01:41:31;93162.66;;;5.13;70.20
15568;BME280;7885;42.596;23.044;2023-04-28T01:43:58;93178.84;;;5.13;69.75
15568;BME280;7885;42.596;23.044;2023-04-28T01:46:25;93179.56;;;5.10;70.42
15568;BME280;7885;42.596;23.044;2023-04-28T01:48:52;93169.25;;;4.96;70.45
15568;BME280;7885;42.596;23.044;2023-04-28T01:51:19;93180.88;;;5.00;70.76
15568;BME280;7885;42.596;23.044;2023-04-28T01:53:46;93184.78;;;5.03;70.67
15568;BME280;7885;42.596;23.044;2023-04-28T01:56:12;93179.09;;;4.89;69.75
15568;BME280;7885;42.596;23.044;2023-04-28T01:58:41;93179.97;;;4.77;70.21
15568;BME280;7885;42.596;23.044;2023-04-28T02:01:07;93175.47;;;4.66;70.20
15568;BME280;7885;42.596;23.044;2023-04-28T02:03:34;93180.34;;;4.60;71.14
15568;BME280;7885;42.596;23.044;2023-04-28T02:06:01;93181.47;;;4.59;70.45
15568;BME280;7885;42.596;23.044;2023-04-28T02:08:28;93187.66;;;4.59;70.95
15568;BME280;7885;42.596;23.044;2023-04-28T02:10:55;93184.38;;;4.50;71.59
15568;BME280;7885;42.596;23.044;2023-04-28T02:13:22;93183.41;;;4.43;71.90
15568;BME280;7885;42.596;23.044;2023-04-28T02:15:50;93180.91;;;4.34;71.99
15568;BME280;7885;42.596;23.044;2023-04-28T02:18:17;93197.22;;;4.41;71.91
15568;BME280;7885;42.596;23.044;2023-04-28T02:20:44;93183.88;;;4.29;72.22
15568;BME280;7885;42.596;23.044;2023-04-28T02:23:10;93198.63;;;4.35;71.90
15568;BME280;7885;42.596;23.044;2023-04-28T02:25:37;93190.13;;;4.33;72.60
15568;BME280;7885;42.596;23.044;2023-04-28T02:28:04;93196.38;;;4.37;72.07
15568;BME280;7885;42.596;23.044;2023-04-28T02:30:31;93199.25;;;4.29;72.40
15568;BME280;7885;42.596;23.044;2023-04-28T02:32:59;93192.72;;;4.14;73.81
15568;BME280;7885;42.596;23.044;2023-04-28T02:35:26;93191.09;;;4.10;73.56
15568;BME280;7885;42.596;23.044;2023-04-28T02:37:53;93202.81;;;4.17;74.42
15568;BME280;7885;42.596;23.044;2023-04-28T02:40:20;93200.72;;;4.11;75.54
15568;BME280;7885;42.596;23.044;2023-04-28T02:42:46;93200.53;;;4.03;75.48
15568;BME280;7885;42.596;23.044;2023-04-28T02:45:13;93192.28;;;3.96;75.73
15568;BME280;7885;42.596;23.044;2023-04-28T02:47:40;93211.84;;;4.09;75.52
15568;BME280;7885;42.596;23.044;2023-04-28T02:50:10;93218.81;;;4.10;74.54
15568;BME280;7885;42.596;23.044;2023-04-28T02:52:36;93217.47;;;4.04;73.71
15568;BME280;7885;42.596;23.044;2023-04-28T02:55:04;93192.34;;;3.69;73.91
15568;BME280;7885;42.596;23.044;2023-04-28T02:57:31;93211.59;;;3.71;74.47
15568;BME280;7885;42.596;23.044;2023-04-28T02:59:58;93226.53;;;3.68;75.08
15568;BME280;7885;42.596;23.044;2023-04-28T03:02:25;93230.69;;;3.66;75.66
15568;BME280;7885;42.596;23.044;2023-04-28T03:04:51;93233.13;;;3.71;75.56
15568;BME280;7885;42.596;23.044;2023-04-28T03:07:19;93216.78;;;3.64;75.87
15568;BME280;7885;42.596;23.044;2023-04-28T03:09:49;93223.94;;;3.72;75.94
15568;BME280;7885;42.596;23.044;2023-04-28T03:12:16;93236.16;;;3.69;75.29
15568;BME280;7885;42.596;23.044;2023-04-28T03:14:42;93223.56;;;3.58;75.45
15568;BME280;7885;42.596;23.044;2023-04-28T03:17:09;93229.75;;;3.46;74.89
15568;BME280;7885;42.596;23.044;2023-04-28T03:19:38;93235.59;;;3.48;75.44
15568;BME280;7885;42.596;23.044;2023-04-28T03:22:05;93241.06;;;3.51;75.28
15568;BME280;7885;42.596;23.044;2023-04-28T03:24:33;93243.09;;;3.54;75.83
15568;BME280;7885;42.596;23.044;2023-04-28T03:27:00;93243.31;;;3.49;75.82
15568;BME280;7885;42.596;23.044;2023-04-28T03:29:28;93254.28;;;3.56;76.13
15568;BME280;7885;42.596;23.044;2023-04-28T03:31:55;93250.25;;;3.50;74.90
15568;BME280;7885;42.596;23.044;2023-04-28T03:34:22;93261.47;;;3.52;75.26
15568;BME280;7885;42.596;23.044;2023-04-28T03:36:49;93265.53;;;3.46;74.93
15568;BME280;7885;42.596;23.044;2023-04-28T03:39:16;93265.00;;;3.41;75.98
15568;BME280;7885;42.596;23.044;2023-04-28T03:41:44;93271.91;;;3.42;76.08
15568;BME280;7885;42.596;23.044;2023-04-28T03:44:11;93266.88;;;3.40;76.32
15568;BME280;7885;42.596;23.044;2023-04-28T03:46:37;93274.50;;;3.38;75.53
15568;BME280;7885;42.596;23.044;2023-04-28T03:49:05;93271.38;;;3.36;75.77
15568;BME280;7885;42.596;23.044;2023-04-28T03:51:31;93283.25;;;3.47;76.40
15568;BME280;7885;42.596;23.044;2023-04-28T03:53:58;93283.66;;;3.49;77.16
15568;BME280;7885;42.596;23.044;2023-04-28T03:56:25;93285.88;;;3.60;76.97
15568;BME280;7885;42.596;23.044;2023-04-28T03:58:54;93280.97;;;3.49;78.87
15568;BME280;7885;42.596;23.044;2023-04-28T04:01:20;93289.66;;;3.71;79.32
15568;BME280;7885;42.596;23.044;2023-04-28T04:03:47;93289.44;;;3.76;78.63
15568;BME280;7885;42.596;23.044;2023-04-28T04:06:14;93287.75;;;3.71;78.50
15568;BME280;7885;42.596;23.044;2023-04-28T04:08:41;93284.03;;;3.76;79.38
15568;BME280;7885;42.596;23.044;2023-04-28T04:11:08;93285.66;;;3.65;79.35
15568;BME280;7885;42.596;23.044;2023-04-28T04:13:35;93278.25;;;3.62;79.45
15568;BME280;7885;42.596;23.044;2023-04-28T04:16:04;93301.50;;;3.82;79.09
15568;BME280;7885;42.596;23.044;2023-04-28T04:18:31;93299.00;;;3.89;79.83
15568;BME280;7885;42.596;23.044;2023-04-28T04:20:58;93302.75;;;4.00;80.39
15568;BME280;7885;42.596;23.044;2023-04-28T04:23:25;93308.78;;;4.09;79.78
15568;BME280;7885;42.596;23.044;2023-04-28T04:25:52;93308.88;;;4.13;79.99
15568;BME280;7885;42.596;23.044;2023-04-28T04:28:19;93296.72;;;4.19;80.81
15568;BME280;7885;42.596;23.044;2023-04-28T04:30:46;93305.44;;;4.28;80.45
15568;BME280;7885;42.596;23.044;2023-04-28T04:33:14;93301.78;;;4.36;80.12
15568;BME280;7885;42.596;23.044;2023-04-28T04:35:41;93309.03;;;4.47;80.02
15568;BME280;7885;42.596;23.044;2023-04-28T04:38:08;93300.25;;;4.50;79.09
15568;BME280;7885;42.596;23.044;2023-04-28T04:40:35;93303.13;;;4.57;79.29
15568;BME280;7885;42.596;23.044;2023-04-28T04:43:01;93313.47;;;4.71;78.74
15568;BME280;7885;42.596;23.044;2023-04-28T04:45:29;93314.44;;;4.79;79.06
15568;BME280;7885;42.596;23.044;2023-04-28T04:47:56;93306.69;;;4.77;79.67
15568;BME280;7885;42.596;23.044;2023-04-28T04:50:24;93310.06;;;4.90;79.90
15568;BME280;7885;42.596;23.044;2023-04-28T04:52:51;93322.06;;;5.08;79.10
15568;BME280;7885;42.596;23.044;2023-04-28T04:55:18;93318.41;;;5.16;78.50
15568;BME280;7885;42.596;23.044;2023-04-28T04:57:45;93327.25;;;5.32;79.07
15568;BME280;7885;42.596;23.044;2023-04-28T05:00:13;93330.19;;;5.43;78.03
15568;BME280;7885;42.596;23.044;2023-04-28T05:02:41;93329.31;;;5.54;76.00
15568;BME280;7885;42.596;23.044;2023-04-28T05:05:08;93339.00;;;5.75;74.61
15568;BME280;7885;42.596;23.044;2023-04-28T05:07:36;93336.78;;;5.80;74.33
15568;BME280;7885;42.596;23.044;2023-04-28T05:10:03;93334.78;;;5.93;72.81
15568;BME280;7885;42.596;23.044;2023-04-28T05:12:31;93334.06;;;5.96;71.48
15568;BME280;7885;42.596;23.044;2023-04-28T05:14:58;93335.75;;;6.04;70.34
15568;BME280;7885;42.596;23.044;2023-04-28T05:17:25;93329.78;;;6.14;70.38
15568;BME280;7885;42.596;23.044;2023-04-28T05:19:51;93340.16;;;6.31;68.86
15568;BME280;7885;42.596;23.044;2023-04-28T05:22:18;93338.75;;;6.37;69.85
15568;BME280;7885;42.596;23.044;2023-04-28T05:24:47;93339.78;;;6.52;67.92
15568;BME280;7885;42.596;23.044;2023-04-28T05:27:13;93337.44;;;6.50;68.10
15568;BME280;7885;42.596;23.044;2023-04-28T05:29:41;93342.69;;;6.63;66.88
15568;BME280;7885;42.596;23.044;2023-04-28T05:32:08;93324.41;;;6.56;66.46
15568;BME280;7885;42.596;23.044;2023-04-28T05:34:35;93340.13;;;6.70;66.33
15568;BME280;7885;42.596;23.044;2023-04-28T05:37:02;93332.84;;;6.74;65.62
15568;BME280;7885;42.596;23.044;2023-04-28T05:39:29;93333.38;;;6.83;65.92
15568;BME280;7885;42.596;23.044;2023-04-28T05:41:57;93335.25;;;6.79;64.95
15568;BME280;7885;42.596;23.044;2023-04-28T05:44:24;93332.69;;;6.86;65.74
15568;BME280;7885;42.596;23.044;2023-04-28T05:46:51;93347.28;;;7.04;65.21
15568;BME280;7885;42.596;23.044;2023-04-28T05:49:18;93345.13;;;7.13;65.58
15568;BME280;7885;42.596;23.044;2023-04-28T05:51:44;93347.16;;;7.20;66.39
15568;BME280;7885;42.596;23.044;2023-04-28T05:54:11;93355.75;;;7.25;64.83
15568;BME280;7885;42.596;23.044;2023-04-28T05:56:38;93328.56;;;7.18;63.46
15568;BME280;7885;42.596;23.044;2023-04-28T05:59:06;93348.75;;;7.24;64.47
15568;BME280;7885;42.596;23.044;2023-04-28T06:01:34;93342.75;;;7.34;65.77
15568;BME280;7885;42.596;23.044;2023-04-28T06:04:03;93339.78;;;7.43;64.58
15568;BME280;7885;42.596;23.044;2023-04-28T06:06:30;93343.91;;;7.59;62.90
15568;BME280;7885;42.596;23.044;2023-04-28T06:08:58;93346.19;;;7.57;61.27
15568;BME280;7885;42.596;23.044;2023-04-28T06:11:25;93342.53;;;7.73;59.91
15568;BME280;7885;42.596;23.044;2023-04-28T06:13:52;93346.50;;;7.79;58.33
15568;BME280;7885;42.596;23.044;2023-04-28T06:16:20;93354.34;;;7.87;58.67
15568;BME280;7885;42.596;23.044;2023-04-28T06:18:48;93356.81;;;7.96;59.01
15568;BME280;7885;42.596;23.044;2023-04-28T06:21:15;93345.22;;;7.99;58.58
15568;BME280;7885;42.596;23.044;2023-04-28T06:23:42;93335.22;;;8.03;58.27
15568;BME280;7885;42.596;23.044;2023-04-28T06:26:09;93340.78;;;8.17;56.80
15568;BME280;7885;42.596;23.044;2023-04-28T06:28:35;93340.50;;;8.22;58.50
15568;BME280;7885;42.596;23.044;2023-04-28T06:31:02;93344.53;;;8.35;58.51
15568;BME280;7885;42.596;23.044;2023-04-28T06:33:30;93341.16;;;8.45;57.58
15568;BME280;7885;42.596;23.044;2023-04-28T06:35:57;93344.34;;;8.51;57.58
15568;BME280;7885;42.596;23.044;2023-04-28T06:38:24;93343.72;;;8.65;58.16
15568;BME280;7885;42.596;23.044;2023-04-28T06:40:51;93335.97;;;8.67;57.22
15568;BME280;7885;42.596;23.044;2023-04-28T06:43:18;93344.28;;;8.81;56.77
15568;BME280;7885;42.596;23.044;2023-04-28T06:45:45;93340.59;;;8.62;55.76
15568;BME280;7885;42.596;23.044;2023-04-28T06:48:12;93345.81;;;8.78;56.48
15568;BME280;7885;42.596;23.044;2023-04-28T06:50:40;93349.31;;;8.79;55.63
15568;BME280;7885;42.596;23.044;2023-04-28T06:53:07;93345.91;;;8.89;54.74
15568;BME280;7885;42.596;23.044;2023-04-28T06:55:35;93326.03;;;8.78;55.30
15568;BME280;7885;42.596;23.044;2023-04-28T06:58:02;93330.03;;;8.91;56.37
15568;BME280;7885;42.596;23.044;2023-04-28T07:00:29;93344.56;;;9.09;56.91
15568;BME280;7885;42.596;23.044;2023-04-28T07:02:55;93326.44;;;9.20;55.63
15568;BME280;7885;42.596;23.044;2023-04-28T07:05:22;93347.13;;;9.39;54.22
15568;BME280;7885;42.596;23.044;2023-04-28T07:07:50;93325.72;;;9.30;53.13
15568;BME280;7885;42.596;23.044;2023-04-28T07:10:17;93343.31;;;9.47;55.58
15568;BME280;7885;42.596;23.044;2023-04-28T07:12:44;93345.75;;;9.62;52.30
15568;BME280;7885;42.596;23.044;2023-04-28T07:15:11;93347.66;;;9.58;52.13
15568;BME280;7885;42.596;23.044;2023-04-28T07:17:38;93327.47;;;9.59;53.51
15568;BME280;7885;42.596;23.044;2023-04-28T07:20:06;93342.38;;;9.80;53.42
15568;BME280;7885;42.596;23.044;2023-04-28T07:22:33;93340.47;;;9.87;53.01
15568;BME280;7885;42.596;23.044;2023-04-28T07:25:02;93336.66;;;9.95;53.01
15568;BME280;7885;42.596;23.044;2023-04-28T07:27:30;93327.34;;;10.00;51.51
15568;BME280;7885;42.596;23.044;2023-04-28T07:29:57;93339.13;;;10.18;49.04
15568;BME280;7885;42.596;23.044;2023-04-28T07:32:23;93339.56;;;10.24;51.05
15568;BME280;7885;42.596;23.044;2023-04-28T07:34:50;93318.16;;;10.22;50.26
15568;BME280;7885;42.596;23.044;2023-04-28T07:37:17;93329.50;;;10.38;52.16
15568;BME280;7885;42.596;23.044;2023-04-28T07:39:44;93335.81;;;10.63;50.96
15568;BME280;7885;42.596;23.044;2023-04-28T07:42:13;93317.09;;;10.44;49.57
15568;BME280;7885;42.596;23.044;2023-04-28T07:44:39;93303.13;;;10.49;51.98
15568;BME280;7885;42.596;23.044;2023-04-28T07:47:07;93328.84;;;10.70;51.43
15568;BME280;7885;42.596;23.044;2023-04-28T07:49:34;93329.25;;;10.72;53.99
15568;BME280;7885;42.596;23.044;2023-04-28T07:52:01;93313.28;;;10.70;50.67
15568;BME280;7885;42.596;23.044;2023-04-28T07:54:27;93337.06;;;10.98;51.02
15568;BME280;7885;42.596;23.044;2023-04-28T07:56:55;93329.72;;;11.12;50.86
15568;BME280;7885;42.596;23.044;2023-04-28T07:59:23;93325.81;;;11.17;50.15
15568;BME280;7885;42.596;23.044;2023-04-28T08:01:50;93334.41;;;11.30;50.02
15568;BME280;7885;42.596;23.044;2023-04-28T08:04:17;93328.56;;;11.42;46.53
15568;BME280;7885;42.596;23.044;2023-04-28T08:06:44;93330.91;;;11.61;48.01
15568;BME280;7885;42.596;23.044;2023-04-28T08:09:10;93321.94;;;11.64;47.22
15568;BME280;7885;42.596;23.044;2023-04-28T08:11:37;93323.50;;;11.76;47.12
15568;BME280;7885;42.596;23.044;2023-04-28T08:14:04;93327.38;;;11.96;49.41
15568;BME280;7885;42.596;23.044;2023-04-28T08:16:32;93330.47;;;11.98;46.71
15568;BME280;7885;42.596;23.044;2023-04-28T08:19:02;93332.06;;;11.99;46.06
15568;BME280;7885;42.596;23.044;2023-04-28T08:21:29;93332.00;;;12.20;43.81
15568;BME280;7885;42.596;23.044;2023-04-28T08:23:57;93335.47;;;12.31;44.06
15568;BME280;7885;42.596;23.044;2023-04-28T08:26:24;93330.31;;;12.61;45.23
15568;BME280;7885;42.596;23.044;2023-04-28T08:28:50;93327.03;;;12.88;44.24
15568;BME280;7885;42.596;23.044;2023-04-28T08:31:17;93321.13;;;12.96;43.20
15568;BME280;7885;42.596;23.044;2023-04-28T08:33:45;93315.19;;;13.19;42.48
15568;BME280;7885;42.596;23.044;2023-04-28T08:36:14;93323.59;;;13.42;42.55
15568;BME280;7885;42.596;23.044;2023-04-28T08:38:42;93320.19;;;13.76;40.22
15568;BME280;7885;42.596;23.044;2023-04-28T08:41:09;93320.91;;;13.83;40.98
15568;BME280;7885;42.596;23.044;2023-04-28T08:43:38;93308.41;;;13.86;38.96
15568;BME280;7885;42.596;23.044;2023-04-28T08:46:07;93321.16;;;13.99;39.47
15568;BME280;7885;42.596;23.044;2023-04-28T08:48:38;93297.22;;;14.07;39.61
15568;BME280;7885;42.596;23.044;2023-04-28T08:51:07;93306.50;;;14.20;36.60
15568;BME280;7885;42.596;23.044;2023-04-28T08:53:37;93318.47;;;14.37;39.57
15568;BME280;7885;42.596;23.044;2023-04-28T08:59:44;93307.41;;;14.78;39.76
15568;BME280;7885;42.596;23.044;2023-04-28T09:02:12;93306.75;;;14.97;36.27
15568;BME280;7885;42.596;23.044;2023-04-28T09:04:39;93314.22;;;14.93;34.75
15568;BME280;7885;42.596;23.044;2023-04-28T09:07:11;93316.53;;;14.98;37.03
15568;BME280;7885;42.596;23.044;2023-04-28T09:09:38;93308.78;;;15.20;37.50
15568;BME280;7885;42.596;23.044;2023-04-28T09:12:06;93303.28;;;15.46;36.97
15568;BME280;7885;42.596;23.044;2023-04-28T09:14:34;93304.16;;;15.90;35.32
15568;BME280;7885;42.596;23.044;2023-04-28T09:17:02;93286.41;;;16.17;34.58
15568;BME280;7885;42.596;23.044;2023-04-28T09:19:36;93295.56;;;16.54;34.52
15568;BME280;7885;42.596;23.044;2023-04-28T09:22:04;93278.09;;;16.44;34.25
15568;BME280;7885;42.596;23.044;2023-04-28T09:24:33;93291.09;;;16.40;32.92
15568;BME280;7885;42.596;23.044;2023-04-28T09:27:02;93287.78;;;16.29;35.07
15568;BME280;7885;42.596;23.044;2023-04-28T09:29:29;93278.09;;;16.44;32.79
15568;BME280;7885;42.596;23.044;2023-04-28T09:32:12;93284.72;;;16.66;35.02
15568;BME280;7885;42.596;23.044;2023-04-28T09:34:42;93279.03;;;16.93;32.62
15568;BME280;7885;42.596;23.044;2023-04-28T09:37:14;93268.34;;;16.99;32.77
15568;BME280;7885;42.596;23.044;2023-04-28T09:39:43;93274.91;;;17.21;30.51
15568;BME280;7885;42.596;23.044;2023-04-28T09:42:10;93277.53;;;17.44;30.73
15568;BME280;7885;42.596;23.044;2023-04-28T09:44:36;93275.59;;;17.25;30.08
15568;BME280;7885;42.596;23.044;2023-04-28T09:47:18;93271.72;;;17.23;29.96
15568;BME280;7885;42.596;23.044;2023-04-28T09:49:57;93252.31;;;16.94;30.35
15568;BME280;7885;42.596;23.044;2023-04-28T09:52:24;93253.63;;;16.70;29.68
15568;BME280;7885;42.596;23.044;2023-04-28T09:54:54;93262.25;;;17.07;32.03
15568;BME280;7885;42.596;23.044;2023-04-28T09:57:21;93247.03;;;17.03;31.95
15568;BME280;7885;42.596;23.044;2023-04-28T09:59:49;93262.13;;;17.47;32.23
15568;BME280;7885;42.596;23.044;2023-04-28T10:02:18;93253.97;;;17.92;31.70
15568;BME280;7885;42.596;23.044;2023-04-28T10:04:46;93250.47;;;18.20;30.01
15568;BME280;7885;42.596;23.044;2023-04-28T10:07:14;93242.94;;;18.37;29.91
15568;BME280;7885;42.596;23.044;2023-04-28T10:09:42;93251.16;;;18.53;30.07
15568;BME280;7885;42.596;23.044;2023-04-28T10:12:13;93229.91;;;18.53;29.92
15568;BME280;7885;42.596;23.044;2023-04-28T10:14:40;93239.66;;;18.71;30.62
15568;BME280;7885;42.596;23.044;2023-04-28T10:17:09;93248.00;;;18.67;29.13
15568;BME280;7885;42.596;23.044;2023-04-28T10:19:36;93220.13;;;18.65;30.63
15568;BME280;7885;42.596;23.044;2023-04-28T10:22:22;93233.50;;;18.92;29.58
15568;BME280;7885;42.596;23.044;2023-04-28T10:25:12;93222.72;;;18.56;28.33
15568;BME280;7885;42.596;23.044;2023-04-28T10:27:48;93217.47;;;18.74;31.39
15568;BME280;7885;42.596;23.044;2023-04-28T10:30:16;93227.97;;;18.79;30.19
15568;BME280;7885;42.596;23.044;2023-04-28T10:32:44;93226.69;;;19.09;29.78
15568;BME280;7885;42.596;23.044;2023-04-28T10:35:41;93231.56;;;19.30;28.39
15568;BME280;7885;42.596;23.044;2023-04-28T10:38:10;93222.06;;;19.06;27.22
15568;BME280;7885;42.596;23.044;2023-04-28T10:40:39;93206.00;;;18.76;30.42
15568;BME280;7885;42.596;23.044;2023-04-28T10:43:08;93215.09;;;18.89;28.37
15568;BME280;7885;42.596;23.044;2023-04-28T10:46:00;93205.97;;;18.63;27.14
15568;BME280;7885;42.596;23.044;2023-04-28T10:49:02;93202.22;;;18.57;28.27
15568;BME280;7885;42.596;23.044;2023-04-28T10:51:29;93196.91;;;18.21;27.67
15568;BME280;7885;42.596;23.044;2023-04-28T10:54:16;93195.75;;;18.63;28.54
15568;BME280;7885;42.596;23.044;2023-04-28T10:57:15;93194.28;;;18.59;28.66
15568;BME280;7885;42.596;23.044;2023-04-28T10:59:44;93194.13;;;18.91;28.64
15568;BME280;7885;42.596;23.044;2023-04-28T11:02:41;93181.22;;;19.26;28.68
15568;BME280;7885;42.596;23.044;2023-04-28T11:05:15;93183.22;;;19.13;28.61
15568;BME280;7885;42.596;23.044;2023-04-28T11:11:17;93170.88;;;19.77;28.26
15568;BME280;7885;42.596;23.044;2023-04-28T11:13:45;93188.06;;;19.94;28.14
15568;BME280;7885;42.596;23.044;2023-04-28T11:16:19;93173.84;;;19.83;25.85
15568;BME280;7885;42.596;23.044;2023-04-28T11:18:57;93177.59;;;19.89;27.73
15568;BME280;7885;42.596;23.044;2023-04-28T11:21:27;93146.72;;;19.69;27.23
15568;BME280;7885;42.596;23.044;2023-04-28T11:23:55;93158.88;;;19.93;27.59
15568;BME280;7885;42.596;23.044;2023-04-28T11:26:23;93150.34;;;20.00;27.49
15568;BME280;7885;42.596;23.044;2023-04-28T11:28:51;93158.59;;;20.12;26.62
15568;BME280;7885;42.596;23.044;2023-04-28T11:31:21;93163.28;;;20.37;26.28
15568;BME280;7885;42.596;23.044;2023-04-28T11:33:52;93160.94;;;20.36;25.16
15568;BME280;7885;42.596;23.044;2023-04-28T11:36:27;93144.06;;;20.21;26.53
15568;BME280;7885;42.596;23.044;2023-04-28T11:38:54;93150.69;;;20.02;25.40
15568;BME280;7885;42.596;23.044;2023-04-28T11:41:22;93140.84;;;20.01;27.23
15568;BME280;7885;42.596;23.044;2023-04-28T11:43:49;93138.09;;;19.66;27.13
15568;BME280;7885;42.596;23.044;2023-04-28T11:46:17;93130.91;;;19.69;28.51
15568;BME280;7885;42.596;23.044;2023-04-28T11:48:45;93147.94;;;19.89;28.22
15568;BME280;7885;42.596;23.044;2023-04-28T11:51:32;93122.34;;;19.89;25.71
15568;BME280;7885;42.596;23.044;2023-04-28T11:54:00;93125.50;;;19.65;26.00
15568;BME280;7885;42.596;23.044;2023-04-28T11:56:27;93136.91;;;19.55;25.60
15568;BME280;7885;42.596;23.044;2023-04-28T11:59:01;93123.97;;;19.64;26.24
15568;BME280;7885;42.596;23.044;2023-04-28T12:01:30;93130.22;;;19.78;26.65
15568;BME280;7885;42.596;23.044;2023-04-28T12:03:58;93123.75;;;19.93;28.15
15568;BME280;7885;42.596;23.044;2023-04-28T12:06:25;93127.44;;;20.12;26.10
15568;BME280;7885;42.596;23.044;2023-04-28T12:08:54;93125.34;;;20.03;25.75
15568;BME280;7885;42.596;23.044;2023-04-28T12:11:22;93105.97;;;20.16;27.50
15568;BME280;7885;42.596;23.044;2023-04-28T12:14:07;93106.31;;;20.40;27.23
15568;BME280;7885;42.596;23.044;2023-04-28T12:16:39;93106.38;;;20.27;25.12
15568;BME280;7885;42.596;23.044;2023-04-28T12:19:10;93102.44;;;20.37;26.21
15568;BME280;7885;42.596;23.044;2023-04-28T12:21:39;93091.13;;;20.44;26.16
15568;BME280;7885;42.596;23.044;2023-04-28T12:24:17;93099.09;;;20.42;26.15
15568;BME280;7885;42.596;23.044;2023-04-28T12:26:44;93104.34;;;20.49;25.78
15568;BME280;7885;42.596;23.044;2023-04-28T12:29:37;93106.31;;;20.40;25.85
15568;BME280;7885;42.596;23.044;2023-04-28T12:32:06;93105.25;;;20.25;24.55
15568;BME280;7885;42.596;23.044;2023-04-28T12:34:35;93101.00;;;20.11;25.29
15568;BME280;7885;42.596;23.044;2023-04-28T12:37:02;93095.88;;;20.00;23.50
15568;BME280;7885;42.596;23.044;2023-04-28T12:39:30;93092.28;;;20.12;25.65
15568;BME280;7885;42.596;23.044;2023-04-28T12:41:57;93105.75;;;20.10;25.68
15568;BME280;7885;42.596;23.044;2023-04-28T12:44:24;93097.94;;;20.09;25.67
15568;BME280;7885;42.596;23.044;2023-04-28T12:46:52;93103.84;;;20.20;25.29
15568;BME280;7885;42.596;23.044;2023-04-28T12:49:20;93103.94;;;20.29;26.63
15568;BME280;7885;42.596;23.044;2023-04-28T12:51:48;93100.25;;;20.32;26.64
15568;BME280;7885;42.596;23.044;2023-04-28T12:54:16;93093.50;;;20.33;26.17
15568;BME280;7885;42.596;23.044;2023-04-28T12:56:42;93092.34;;;20.43;25.89
15568;BME280;7885;42.596;23.044;2023-04-28T12:59:09;93089.94;;;20.54;25.49
15568;BME280;7885;42.596;23.044;2023-04-28T13:01:36;93080.66;;;20.39;25.30
15568;BME280;7885;42.596;23.044;2023-04-28T13:04:03;93082.00;;;20.35;26.46
15568;BME280;7885;42.596;23.044;2023-04-28T13:06:30;93080.88;;;20.10;26.08
15568;BME280;7885;42.596;23.044;2023-04-28T13:08:58;93079.41;;;20.18;26.06
15568;BME280;7885;42.596;23.044;2023-04-28T13:11:25;93072.53;;;20.23;25.08
15568;BME280;7885;42.596;23.044;2023-04-28T13:13:53;93074.75;;;20.28;25.38
15568;BME280;7885;42.596;23.044;2023-04-28T13:16:21;93069.72;;;20.14;25.41
15568;BME280;7885;42.596;23.044;2023-04-28T13:18:50;93061.94;;;20.00;26.73
15568;BME280;7885;42.596;23.044;2023-04-28T13:21:17;93054.09;;;20.20;26.75